createdAt,value
2023-04-21T00:01:00.629Z,9.90
2023-04-21T00:03:28.686Z,9.90
2023-04-21T00:05:58.860Z,9.90
2023-04-21T00:08:28.524Z,9.90
2023-04-21T00:10:55.256Z,9.90
2023-04-21T00:13:23.901Z,9.90
2023-04-21T00:15:51.328Z,9.80
2023-04-21T00:18:18.130Z,9.80
2023-04-21T00:20:45.172Z,9.80
2023-04-21T00:23:12.143Z,9.80
2023-04-21T00:25:38.743Z,9.80
2023-04-21T00:28:05.582Z,9.80
2023-04-21T00:30:32.214Z,9.80
2023-04-21T00:32:58.912Z,9.70
2023-04-21T00:35:26.130Z,9.70
2023-04-21T00:37:53.069Z,9.70
2023-04-21T00:40:20.539Z,9.70
2023-04-21T00:42:47.374Z,9.70
2023-04-21T00:45:17.610Z,9.70
2023-04-21T00:47:44.602Z,9.60
2023-04-21T00:50:12.257Z,9.60
2023-04-21T00:52:44.017Z,9.60
2023-04-21T00:55:11.160Z,9.60
2023-04-21T00:57:40.633Z,9.60
2023-04-21T01:00:09.025Z,9.60
2023-04-21T01:02:37.561Z,9.60
2023-04-21T01:05:09.301Z,9.60
2023-04-21T01:07:36.394Z,9.50
2023-04-21T01:10:04.180Z,9.50
2023-04-21T01:12:31.033Z,9.50
2023-04-21T01:14:57.662Z,9.50
2023-04-21T01:17:24.467Z,9.50
2023-04-21T01:19:53.575Z,9.50
2023-04-21T01:22:20.178Z,9.40
2023-04-21T01:24:48.832Z,9.40
2023-04-21T01:27:20.139Z,9.40
2023-04-21T01:29:51.991Z,9.40
2023-04-21T01:32:25.271Z,9.40
2023-04-21T01:34:52.238Z,9.40
2023-04-21T01:37:25.873Z,9.40
2023-04-21T01:39:54.888Z,9.30
2023-04-21T01:42:24.746Z,9.30
2023-04-21T01:44:53.820Z,9.30
2023-04-21T01:47:21.461Z,9.30
2023-04-21T01:49:48.180Z,9.30
2023-04-21T01:52:14.858Z,9.30
2023-04-21T01:54:41.616Z,9.30
2023-04-21T01:57:08.528Z,9.30
2023-04-21T01:59:35.604Z,9.20
2023-04-21T02:02:02.273Z,9.20
2023-04-21T02:04:29.243Z,9.20
2023-04-21T02:06:56.040Z,9.20
2023-04-21T02:09:22.872Z,9.20
2023-04-21T02:11:49.518Z,9.20
2023-04-21T02:14:16.300Z,9.20
2023-04-21T02:16:43.178Z,9.20
2023-04-21T02:19:09.909Z,9.20
2023-04-21T02:21:36.536Z,9.10
2023-04-21T02:24:05.252Z,9.10
2023-04-21T02:26:33.194Z,9.10
2023-04-21T02:28:59.925Z,9.10
2023-04-21T02:31:26.949Z,9.10
2023-04-21T02:33:54.755Z,9.10
2023-04-21T02:36:21.796Z,9.10
2023-04-21T02:38:48.496Z,9.10
2023-04-21T02:41:15.182Z,9.10
2023-04-21T02:43:41.802Z,9.10
2023-04-21T02:46:09.768Z,9.00
2023-04-21T02:48:36.968Z,9.00
2023-04-21T02:51:04.696Z,9.00
2023-04-21T02:53:31.719Z,9.00
2023-04-21T02:55:58.358Z,9.00
2023-04-21T02:58:25.032Z,9.00
2023-04-21T03:00:51.845Z,9.00
2023-04-21T03:03:19.024Z,9.00
2023-04-21T03:05:46.131Z,9.00
2023-04-21T03:08:12.997Z,9.00
2023-04-21T03:10:39.973Z,9.00
2023-04-21T03:13:06.612Z,9.00
2023-04-21T03:15:33.247Z,9.00
2023-04-21T03:17:59.893Z,8.90
2023-04-21T03:20:26.584Z,8.90
2023-04-21T03:22:56.168Z,8.90
2023-04-21T03:25:22.929Z,8.90
2023-04-21T03:27:49.841Z,8.90
2023-04-21T03:30:16.632Z,8.90
2023-04-21T03:32:43.270Z,8.90
2023-04-21T03:35:09.973Z,8.90
2023-04-21T03:37:36.731Z,8.90
2023-04-21T03:40:09.090Z,8.90
2023-04-21T03:42:35.847Z,8.90
2023-04-21T03:45:03.913Z,8.90
2023-04-21T03:47:30.768Z,8.90
2023-04-21T03:49:57.524Z,8.90
2023-04-21T03:52:24.791Z,8.90
2023-04-21T03:54:51.541Z,8.90
2023-04-21T03:57:18.191Z,8.80
2023-04-21T03:59:44.982Z,8.90
2023-04-21T04:02:11.727Z,8.90
2023-04-21T04:04:38.804Z,8.90
2023-04-21T04:07:07.519Z,8.90
2023-04-21T04:09:34.337Z,8.90
2023-04-21T04:12:02.965Z,8.80
2023-04-21T04:14:30.319Z,8.80
2023-04-21T04:16:58.436Z,8.90
2023-04-21T04:19:30.562Z,8.80
2023-04-21T04:21:59.689Z,8.80
2023-04-21T04:24:26.821Z,8.80
2023-04-21T04:26:54.961Z,8.80
2023-04-21T04:29:22.736Z,8.80
2023-04-21T04:31:52.834Z,8.80
2023-04-21T04:34:19.967Z,8.80
2023-04-21T04:36:48.124Z,8.80
2023-04-21T04:39:16.736Z,8.80
2023-04-21T04:41:43.729Z,8.80
2023-04-21T04:44:11.360Z,8.80
2023-04-21T04:46:39.323Z,8.80
2023-04-21T04:49:06.008Z,8.80
2023-04-21T04:51:32.829Z,8.80
2023-04-21T04:53:59.590Z,8.80
2023-04-21T04:56:26.257Z,8.80
2023-04-21T04:58:52.984Z,8.80
2023-04-21T05:01:19.602Z,8.80
2023-04-21T05:03:46.938Z,8.80
2023-04-21T05:06:14.395Z,8.80
2023-04-21T05:08:44.009Z,8.80
2023-04-21T05:11:10.712Z,8.80
2023-04-21T05:13:39.809Z,8.80
2023-04-21T05:16:07.605Z,8.80
2023-04-21T05:18:34.409Z,8.80
2023-04-21T05:21:01.107Z,8.80
2023-04-21T05:23:27.952Z,8.80
2023-04-21T05:25:54.553Z,8.80
2023-04-21T05:28:21.425Z,8.80
2023-04-21T05:30:48.029Z,8.80
2023-04-21T05:33:14.687Z,8.80
2023-04-21T05:35:41.521Z,8.80
2023-04-21T05:38:08.246Z,8.90
2023-04-21T05:40:34.787Z,8.90
2023-04-21T05:43:01.410Z,8.90
2023-04-21T05:45:27.932Z,8.90
2023-04-21T05:47:54.600Z,8.90
2023-04-21T05:50:21.337Z,8.90
2023-04-21T05:52:48.025Z,8.90
2023-04-21T05:55:14.641Z,9.00
2023-04-21T05:57:41.339Z,9.00
2023-04-21T06:00:08.713Z,9.00
2023-04-21T06:02:35.492Z,9.00
2023-04-21T06:05:02.502Z,9.00
2023-04-21T06:07:29.516Z,9.00
2023-04-21T06:09:57.919Z,9.00
2023-04-21T06:12:24.833Z,9.10
2023-04-21T06:14:51.674Z,9.10
2023-04-21T06:17:18.647Z,9.10
2023-04-21T06:19:45.397Z,9.10
2023-04-21T06:22:12.058Z,9.10
2023-04-21T06:24:38.797Z,9.10
2023-04-21T06:27:11.261Z,9.10
2023-04-21T06:29:39.357Z,9.20
2023-04-21T06:32:06.196Z,9.20
2023-04-21T06:34:32.911Z,9.20
2023-04-21T06:36:59.633Z,9.20
2023-04-21T06:39:26.485Z,9.20
2023-04-21T06:41:53.259Z,9.20
2023-04-21T06:44:20.202Z,9.30
2023-04-21T06:46:47.525Z,9.30
2023-04-21T06:49:14.158Z,9.30
2023-04-21T06:51:40.964Z,9.30
2023-04-21T06:54:07.650Z,9.40
2023-04-21T06:56:34.527Z,9.40
2023-04-21T06:59:01.126Z,9.40
2023-04-21T07:01:27.829Z,9.50
2023-04-21T07:03:54.854Z,9.50
2023-04-21T07:06:21.500Z,9.60
2023-04-21T07:08:48.117Z,9.60
2023-04-21T07:11:14.704Z,9.70
2023-04-21T07:13:41.336Z,9.70
2023-04-21T07:16:08.116Z,9.80
2023-04-21T07:18:34.852Z,9.70
2023-04-21T07:21:01.473Z,9.70
2023-04-21T07:23:28.285Z,9.80
2023-04-21T07:25:54.966Z,9.70
2023-04-21T07:28:21.714Z,9.70
2023-04-21T07:30:48.422Z,9.80
2023-04-21T07:33:15.503Z,9.80
2023-04-21T07:35:42.335Z,9.90
2023-04-21T07:38:09.402Z,10.00
2023-04-21T07:40:36.028Z,10.00
2023-04-21T07:43:02.718Z,10.10
2023-04-21T07:45:29.391Z,10.20
2023-04-21T07:47:56.072Z,10.30
2023-04-21T07:50:22.776Z,10.40
2023-04-21T07:52:49.466Z,10.60
2023-04-21T07:55:16.216Z,10.70
2023-04-21T07:57:42.852Z,10.70
2023-04-21T08:00:10.467Z,10.80
2023-04-21T08:02:37.207Z,10.70
2023-04-21T08:05:04.072Z,10.80
2023-04-21T08:07:31.875Z,10.90
2023-04-21T08:09:58.869Z,11.00
2023-04-21T08:12:25.930Z,11.00
2023-04-21T08:14:52.588Z,11.10
2023-04-21T08:17:19.228Z,11.10
2023-04-21T08:19:45.882Z,11.20
2023-04-21T08:22:12.634Z,11.20
2023-04-21T08:24:39.766Z,11.20
2023-04-21T08:27:06.443Z,11.20
2023-04-21T08:29:33.059Z,11.20
2023-04-21T08:31:59.843Z,11.30
2023-04-21T08:34:27.914Z,11.30
2023-04-21T08:36:54.757Z,11.40
2023-04-21T08:39:21.588Z,11.40
2023-04-21T08:41:48.889Z,11.50
2023-04-21T08:44:15.941Z,11.60
2023-04-21T08:46:44.785Z,11.70
2023-04-21T08:49:13.033Z,11.80
2023-04-21T08:51:40.336Z,11.90
2023-04-21T08:54:07.007Z,12.00
2023-04-21T08:56:33.683Z,12.00
2023-04-21T08:59:00.367Z,12.10
2023-04-21T09:01:27.167Z,12.20
2023-04-21T09:03:54.130Z,12.20
2023-04-21T09:06:21.421Z,12.20
2023-04-21T09:08:58.051Z,12.20
2023-04-21T09:11:25.207Z,12.30
2023-04-21T09:13:51.882Z,12.20
2023-04-21T09:16:21.648Z,12.30
2023-04-21T09:18:50.168Z,12.30
2023-04-21T09:21:18.864Z,12.40
2023-04-21T09:23:55.551Z,12.50
2023-04-21T09:26:25.246Z,12.70
2023-04-21T09:28:53.096Z,12.70
2023-04-21T09:31:23.062Z,12.80
2023-04-21T09:36:28.041Z,13.00
2023-04-21T09:39:05.577Z,13.00
2023-04-21T09:41:44.522Z,13.10
2023-04-21T09:44:11.154Z,13.20
2023-04-21T09:46:38.172Z,13.20
2023-04-21T09:49:06.170Z,13.30
2023-04-21T09:51:56.301Z,13.40
2023-04-21T09:54:29.551Z,13.70
2023-04-21T09:56:59.542Z,13.80
2023-04-21T09:59:29.802Z,13.90
2023-04-21T10:01:58.879Z,13.80
2023-04-21T10:04:26.399Z,13.70
2023-04-21T10:06:53.557Z,13.70
2023-04-21T10:09:23.860Z,13.80
2023-04-21T10:11:51.665Z,13.90
2023-04-21T10:14:18.820Z,14.00
2023-04-21T10:16:56.923Z,14.20
2023-04-21T10:19:25.800Z,14.30
2023-04-21T10:21:55.348Z,14.20
2023-04-21T10:24:22.251Z,14.30
2023-04-21T10:26:52.630Z,14.50
2023-04-21T10:29:43.666Z,14.50
2023-04-21T10:32:33.159Z,14.40
2023-04-21T10:35:00.150Z,14.30
2023-04-21T10:37:31.114Z,14.50
2023-04-21T10:39:57.938Z,14.50
2023-04-21T10:42:27.324Z,14.70
2023-04-21T10:45:02.588Z,14.60
2023-04-21T10:47:37.054Z,14.70
2023-04-21T10:50:23.536Z,14.70
2023-04-21T10:53:00.037Z,14.90
2023-04-21T10:55:28.585Z,15.00
2023-04-21T10:57:56.089Z,15.20
2023-04-21T11:00:24.498Z,15.30
2023-04-21T11:03:03.067Z,15.50
2023-04-21T11:05:32.251Z,15.60
2023-04-21T11:08:09.000Z,15.70
2023-04-21T11:11:02.175Z,15.80
2023-04-21T11:13:35.029Z,16.00
2023-04-21T11:16:07.022Z,16.10
2023-04-21T11:18:45.235Z,16.00
2023-04-21T11:21:24.594Z,16.00
2023-04-21T11:23:56.073Z,16.00
2023-04-21T11:26:33.755Z,16.20
2023-04-21T11:29:02.286Z,16.30
2023-04-21T11:31:30.407Z,16.30
2023-04-21T11:33:58.427Z,16.40
2023-04-21T11:36:25.143Z,16.60
2023-04-21T11:38:51.751Z,16.70
2023-04-21T11:41:22.979Z,16.60
2023-04-21T11:43:50.808Z,16.90
2023-04-21T11:46:24.934Z,16.80
2023-04-21T11:49:13.507Z,16.80
2023-04-21T11:51:42.256Z,16.90
2023-04-21T11:54:13.888Z,16.90
2023-04-21T11:56:42.472Z,17.00
2023-04-21T11:59:11.021Z,17.00
2023-04-21T12:01:48.783Z,17.10
2023-04-21T12:04:19.711Z,17.20
2023-04-21T12:06:48.032Z,17.20
2023-04-21T12:09:19.332Z,17.30
2023-04-21T12:11:51.389Z,17.40
2023-04-21T12:14:21.036Z,17.30
2023-04-21T12:16:53.396Z,17.10
2023-04-21T12:19:39.213Z,17.40
2023-04-21T12:22:10.751Z,17.30
2023-04-21T12:24:38.239Z,17.40
2023-04-21T12:27:05.837Z,17.50
2023-04-21T12:29:35.730Z,17.50
2023-04-21T12:32:02.568Z,17.40
2023-04-21T12:34:29.373Z,17.40
2023-04-21T12:36:56.086Z,17.50
2023-04-21T12:39:22.785Z,17.20
2023-04-21T12:41:49.401Z,17.40
2023-04-21T12:44:16.057Z,17.50
2023-04-21T12:46:42.769Z,17.60
2023-04-21T12:49:10.145Z,17.70
2023-04-21T12:51:36.895Z,17.80
2023-04-21T12:54:03.624Z,17.70
2023-04-21T12:56:30.640Z,17.50
2023-04-21T12:58:58.248Z,17.50
2023-04-21T13:01:25.120Z,17.50
2023-04-21T13:03:52.107Z,17.50
2023-04-21T13:06:19.108Z,17.50
2023-04-21T13:08:45.737Z,17.60
2023-04-21T13:11:12.356Z,17.60
2023-04-21T13:13:39.086Z,17.60
2023-04-21T13:16:06.090Z,17.50
2023-04-21T13:18:34.967Z,17.50
2023-04-21T13:21:02.108Z,17.50
2023-04-21T13:23:29.187Z,17.50
2023-04-21T13:25:56.010Z,17.50
2023-04-21T13:28:23.524Z,17.40
2023-04-21T13:30:52.453Z,17.40
2023-04-21T13:33:19.936Z,17.30
2023-04-21T13:35:46.724Z,17.30
2023-04-21T13:38:13.409Z,17.40
2023-04-21T13:40:39.989Z,17.20
2023-04-21T13:43:06.780Z,17.30
2023-04-21T13:45:33.480Z,17.30
2023-04-21T13:48:00.151Z,17.30
2023-04-21T13:50:26.792Z,17.20
2023-04-21T13:52:53.446Z,17.10
2023-04-21T13:55:21.008Z,16.90
2023-04-21T13:57:47.579Z,17.00
2023-04-21T14:00:18.036Z,17.10
2023-04-21T14:02:45.005Z,17.10
2023-04-21T14:05:12.052Z,17.10
2023-04-21T14:07:39.098Z,17.10
2023-04-21T14:10:08.859Z,17.10
2023-04-21T14:12:35.602Z,17.00
2023-04-21T14:15:02.310Z,17.00
2023-04-21T14:17:28.989Z,17.10
2023-04-21T14:19:55.735Z,17.20
2023-04-21T14:22:22.460Z,17.20
2023-04-21T14:24:49.172Z,17.30
2023-04-21T14:27:16.252Z,17.40
2023-04-21T14:29:42.898Z,17.50
2023-04-21T14:32:09.643Z,17.60
2023-04-21T14:34:36.304Z,17.70
2023-04-21T14:37:03.286Z,17.80
2023-04-21T14:39:29.896Z,17.80
2023-04-21T14:41:56.579Z,17.90
2023-04-21T14:44:23.193Z,18.10
2023-04-21T14:47:00.987Z,18.10
2023-04-21T14:49:33.131Z,18.20
2023-04-21T14:52:00.074Z,18.30
2023-04-21T14:54:26.706Z,18.30
2023-04-21T14:57:00.539Z,18.30
2023-04-21T14:59:33.835Z,18.40
2023-04-21T15:02:01.013Z,18.40
2023-04-21T15:04:28.152Z,18.40
2023-04-21T15:06:54.900Z,18.40
2023-04-21T15:09:21.667Z,18.50
2023-04-21T15:11:48.449Z,18.50
2023-04-21T15:14:15.049Z,18.60
2023-04-21T15:16:41.712Z,18.60
2023-04-21T15:19:08.365Z,18.60
2023-04-21T15:21:35.061Z,18.60
2023-04-21T15:24:01.667Z,18.70
2023-04-21T15:26:30.326Z,18.70
2023-04-21T15:28:57.792Z,18.70
2023-04-21T15:31:24.590Z,18.60
2023-04-21T15:33:51.341Z,18.70
2023-04-21T15:36:17.932Z,18.70
2023-04-21T15:38:45.142Z,18.70
2023-04-21T15:41:11.906Z,18.70
2023-04-21T15:43:38.785Z,18.60
2023-04-21T15:46:13.087Z,18.50
2023-04-21T15:48:41.489Z,18.60
2023-04-21T15:51:09.165Z,18.60
2023-04-21T15:53:37.366Z,18.50
2023-04-21T15:56:04.902Z,18.40
2023-04-21T15:58:31.598Z,18.40
2023-04-21T16:00:58.324Z,18.30
2023-04-21T16:03:26.408Z,18.40
2023-04-21T16:05:53.610Z,18.30
2023-04-21T16:08:20.814Z,18.10
2023-04-21T16:10:47.638Z,18.10
2023-04-21T16:13:14.318Z,17.70
2023-04-21T16:15:41.334Z,17.00
2023-04-21T16:18:08.606Z,16.70
2023-04-21T16:20:36.859Z,15.90
2023-04-21T16:23:04.912Z,15.90
2023-04-21T16:25:34.362Z,16.10
2023-04-21T16:28:01.099Z,15.90
2023-04-21T16:30:27.834Z,15.60
2023-04-21T16:32:54.505Z,15.20
2023-04-21T16:35:21.354Z,15.30
2023-04-21T16:37:48.097Z,14.40
2023-04-21T16:40:14.761Z,14.10
2023-04-21T16:42:41.508Z,13.80
2023-04-21T16:45:08.449Z,13.60
2023-04-21T16:47:41.355Z,13.90
2023-04-21T16:50:09.267Z,13.70
2023-04-21T16:52:35.963Z,13.90
2023-04-21T16:55:02.527Z,14.10
2023-04-21T16:57:30.430Z,14.00
2023-04-21T16:59:59.147Z,13.80
2023-04-21T17:02:26.131Z,14.10
2023-04-21T17:04:52.863Z,14.20
2023-04-21T17:07:19.519Z,14.40
2023-04-21T17:09:46.123Z,14.40
2023-04-21T17:12:12.797Z,14.30
2023-04-21T17:14:40.319Z,14.20
2023-04-21T17:17:07.239Z,14.20
2023-04-21T17:19:34.048Z,13.90
2023-04-21T17:22:00.953Z,13.80
2023-04-21T17:24:33.101Z,13.90
2023-04-21T17:27:04.884Z,13.90
2023-04-21T17:29:31.953Z,14.10
2023-04-21T17:31:58.733Z,14.30
2023-04-21T17:34:25.344Z,14.40
2023-04-21T17:36:51.998Z,14.40
2023-04-21T17:39:18.657Z,14.40
2023-04-21T17:41:47.245Z,14.40
2023-04-21T17:44:13.922Z,14.40
2023-04-21T17:46:41.719Z,14.30
2023-04-21T17:49:08.430Z,14.30
2023-04-21T17:51:36.111Z,14.30
2023-04-21T17:54:03.286Z,14.20
2023-04-21T17:56:29.906Z,14.10
2023-04-21T17:58:56.653Z,14.00
2023-04-21T18:01:23.349Z,14.10
2023-04-21T18:03:50.223Z,14.10
2023-04-21T18:06:17.558Z,14.10
2023-04-21T18:08:44.264Z,14.10
2023-04-21T18:11:12.186Z,14.00
2023-04-21T18:13:38.820Z,14.00
2023-04-21T18:16:05.616Z,13.90
2023-04-21T18:18:32.322Z,13.80
2023-04-21T18:20:59.792Z,13.90
2023-04-21T18:23:26.433Z,13.90
2023-04-21T18:25:52.983Z,13.90
2023-04-21T18:28:19.630Z,13.80
2023-04-21T18:30:46.862Z,13.80
2023-04-21T18:33:13.524Z,13.80
2023-04-21T18:35:41.656Z,13.80
2023-04-21T18:38:10.464Z,13.70
2023-04-21T18:40:37.695Z,13.70
2023-04-21T18:43:05.147Z,13.70
2023-04-21T18:45:32.063Z,13.60
2023-04-21T18:47:58.826Z,13.60
2023-04-21T18:50:27.613Z,13.60
2023-04-21T18:52:55.109Z,13.50
2023-04-21T18:55:22.025Z,13.50
2023-04-21T18:57:48.869Z,13.50
2023-04-21T19:00:15.909Z,13.40
2023-04-21T19:02:43.321Z,13.40
2023-04-21T19:05:10.027Z,13.40
2023-04-21T19:07:36.746Z,13.40
2023-04-21T19:10:03.392Z,13.30
2023-04-21T19:12:30.064Z,13.30
2023-04-21T19:14:56.769Z,13.30
2023-04-21T19:17:23.502Z,13.20
2023-04-21T19:19:51.120Z,13.20
2023-04-21T19:22:19.890Z,13.20
2023-04-21T19:24:47.463Z,13.20
2023-04-21T19:27:14.125Z,13.10
2023-04-21T19:29:41.519Z,13.10
2023-04-21T19:32:08.323Z,13.10
2023-04-21T19:34:35.060Z,13.10
2023-04-21T19:37:01.795Z,13.00
2023-04-21T19:39:28.728Z,13.00
2023-04-21T19:41:57.429Z,13.00
2023-04-21T19:44:24.292Z,13.00
2023-04-21T19:46:51.266Z,12.90
2023-04-21T19:49:18.015Z,12.90
2023-04-21T19:51:44.660Z,12.90
2023-04-21T19:54:13.178Z,12.90
2023-04-21T19:56:40.783Z,12.80
2023-04-21T19:59:07.687Z,12.70
2023-04-21T20:01:34.746Z,12.70
2023-04-21T20:04:02.152Z,12.70
2023-04-21T20:06:29.184Z,12.70
2023-04-21T20:08:56.075Z,12.70
2023-04-21T20:11:23.285Z,12.70
2023-04-21T20:13:50.522Z,12.60
2023-04-21T20:16:20.871Z,12.60
2023-04-21T20:18:48.967Z,12.60
2023-04-21T20:21:15.585Z,12.60
2023-04-21T20:23:42.161Z,12.60
2023-04-21T20:26:08.798Z,12.50
2023-04-21T20:28:36.089Z,12.50
2023-04-21T20:31:02.899Z,12.50
2023-04-21T20:33:30.268Z,12.40
2023-04-21T20:35:57.248Z,12.40
2023-04-21T20:38:24.055Z,12.40
2023-04-21T20:40:52.474Z,12.40
2023-04-21T20:43:19.320Z,12.30
2023-04-21T20:45:47.734Z,12.30
2023-04-21T20:48:14.373Z,12.30
2023-04-21T20:50:42.262Z,12.30
2023-04-21T20:53:10.087Z,12.30
2023-04-21T20:55:36.929Z,12.30
2023-04-21T20:58:04.701Z,12.20
2023-04-21T21:00:33.046Z,12.20
2023-04-21T21:03:00.386Z,12.20
2023-04-21T21:05:33.390Z,12.10
2023-04-21T21:08:00.067Z,12.10
2023-04-21T21:10:26.892Z,12.10
2023-04-21T21:12:53.642Z,12.10
2023-04-21T21:15:20.228Z,12.10
2023-04-21T21:17:46.942Z,12.00
2023-04-21T21:20:13.561Z,12.00
2023-04-21T21:22:40.207Z,12.00
2023-04-21T21:25:07.176Z,12.00
2023-04-21T21:27:34.164Z,11.90
2023-04-21T21:30:00.889Z,11.90
2023-04-21T21:32:27.576Z,11.90
2023-04-21T21:34:54.192Z,11.90
2023-04-21T21:37:21.340Z,11.80
2023-04-21T21:39:48.354Z,11.80
2023-04-21T21:42:15.099Z,11.80
2023-04-21T21:44:41.715Z,11.80
2023-04-21T21:47:08.348Z,11.70
2023-04-21T21:49:35.052Z,11.70
2023-04-21T21:52:02.600Z,11.70
2023-04-21T21:54:29.276Z,11.60
2023-04-21T21:56:56.344Z,11.60
2023-04-21T21:59:23.158Z,11.60
2023-04-21T22:01:51.167Z,11.60
2023-04-21T22:04:18.050Z,11.60
2023-04-21T22:06:45.532Z,11.60
2023-04-21T22:09:12.206Z,11.50
2023-04-21T22:11:38.787Z,11.50
2023-04-21T22:14:18.529Z,11.50
2023-04-21T22:16:50.821Z,11.40
2023-04-21T22:19:19.254Z,11.40
2023-04-21T22:21:46.050Z,11.40
2023-04-21T22:24:13.018Z,11.40
2023-04-21T22:26:39.784Z,11.40
2023-04-21T22:29:07.096Z,11.30
2023-04-21T22:31:33.889Z,11.30
2023-04-21T22:34:00.742Z,11.30
2023-04-21T22:36:27.401Z,11.30
2023-04-21T22:38:54.044Z,11.20
2023-04-21T22:41:21.223Z,11.20
2023-04-21T22:43:47.943Z,11.20
2023-04-21T22:46:14.970Z,11.20
2023-04-21T22:48:41.826Z,11.10
2023-04-21T22:51:08.558Z,11.10
2023-04-21T22:53:35.501Z,11.10
2023-04-21T22:56:02.504Z,11.10
2023-04-21T22:58:29.220Z,11.10
2023-04-21T23:01:39.359Z,11.10
2023-04-21T23:04:06.187Z,11.00
2023-04-21T23:06:33.345Z,11.00
2023-04-21T23:09:00.175Z,11.00
2023-04-21T23:11:26.896Z,11.00
2023-04-21T23:13:54.035Z,10.90
2023-04-21T23:16:20.844Z,10.90
2023-04-21T23:18:47.528Z,10.90
2023-04-21T23:21:14.442Z,10.90
2023-04-21T23:23:41.078Z,10.80
2023-04-21T23:26:07.710Z,10.80
2023-04-21T23:28:34.343Z,10.80
2023-04-21T23:31:01.047Z,10.80
2023-04-21T23:33:27.732Z,10.80
2023-04-21T23:35:57.344Z,10.70
2023-04-21T23:38:23.997Z,10.70
2023-04-21T23:40:50.608Z,10.70
2023-04-21T23:43:17.204Z,10.70
2023-04-21T23:45:43.875Z,10.70
2023-04-21T23:48:10.489Z,10.70
2023-04-21T23:50:37.372Z,10.60
2023-04-21T23:53:04.100Z,10.60
2023-04-21T23:55:30.824Z,10.60
2023-04-21T23:57:58.188Z,10.60
